sensor_id;sensor_type;location;lat;lon;timestamp;pressure;altitude;pressure_sealevel;temperature;humidity
27304;BME280;14791;52.392;13.092;2023-05-23T00:00:34;100737.20;;;25.14;25.81
27304;BME280;14791;52.392;13.092;2023-05-23T00:03:03;100724.55;;;25.13;25.90
27304;BME280;14791;52.392;13.092;2023-05-23T00:05:32;100728.66;;;25.13;25.92
27304;BME280;14791;52.392;13.092;2023-05-23T00:08:02;100720.14;;;25.12;25.97
27304;BME280;14791;52.392;13.092;2023-05-23T00:10:31;100717.06;;;25.11;26.02
27304;BME280;14791;52.392;13.092;2023-05-23T00:13:00;100719.13;;;25.09;26.03
27304;BME280;14791;52.392;13.092;2023-05-23T00:15:31;100718.50;;;25.07;26.08
27304;BME280;14791;52.392;13.092;2023-05-23T00:18:00;100717.49;;;25.04;26.04
27304;BME280;14791;52.392;13.092;2023-05-23T00:20:29;100723.66;;;25.02;26.04
27304;BME280;14791;52.392;13.092;2023-05-23T00:22:59;100717.22;;;24.99;26.13
27304;BME280;14791;52.392;13.092;2023-05-23T00:25:31;100717.92;;;24.97;26.24
27304;BME280;14791;52.392;13.092;2023-05-23T00:28:05;100713.90;;;24.93;26.31
27304;BME280;14791;52.392;13.092;2023-05-23T00:30:34;100717.86;;;24.90;26.34
27304;BME280;14791;52.392;13.092;2023-05-23T00:33:03;100707.28;;;24.87;26.39
27304;BME280;14791;52.392;13.092;2023-05-23T00:35:32;100704.10;;;24.83;26.49
27304;BME280;14791;52.392;13.092;2023-05-23T00:38:00;100714.36;;;24.81;26.58
27304;BME280;14791;52.392;13.092;2023-05-23T00:40:30;100707.92;;;24.78;26.63
27304;BME280;14791;52.392;13.092;2023-05-23T00:42:59;100702.81;;;24.75;26.72
27304;BME280;14791;52.392;13.092;2023-05-23T00:45:29;100700.98;;;24.72;26.78
27304;BME280;14791;52.392;13.092;2023-05-23T00:48:00;100702.22;;;24.69;26.83
27304;BME280;14791;52.392;13.092;2023-05-23T00:50:30;100701.41;;;24.65;26.86
27304;BME280;14791;52.392;13.092;2023-05-23T00:53:00;100706.38;;;24.61;26.91
27304;BME280;14791;52.392;13.092;2023-05-23T00:55:30;100708.66;;;24.57;26.99
27304;BME280;14791;52.392;13.092;2023-05-23T00:58:00;100704.42;;;24.55;27.03
27304;BME280;14791;52.392;13.092;2023-05-23T01:00:29;100703.09;;;24.51;27.06
27304;BME280;14791;52.392;13.092;2023-05-23T01:02:58;100703.78;;;24.49;27.12
27304;BME280;14791;52.392;13.092;2023-05-23T01:05:29;100703.12;;;24.47;27.16
27304;BME280;14791;52.392;13.092;2023-05-23T01:07:58;100701.78;;;24.43;27.20
27304;BME280;14791;52.392;13.092;2023-05-23T01:10:30;100709.45;;;24.43;27.23
27304;BME280;14791;52.392;13.092;2023-05-23T01:13:22;100699.75;;;24.40;27.27
27304;BME280;14791;52.392;13.092;2023-05-23T01:19:00;100694.36;;;24.32;27.35
27304;BME280;14791;52.392;13.092;2023-05-23T01:21:29;100694.56;;;24.31;27.41
27304;BME280;14791;52.392;13.092;2023-05-23T01:24:22;100698.86;;;24.25;27.46
27304;BME280;14791;52.392;13.092;2023-05-23T01:29:34;100695.50;;;24.23;27.59
27304;BME280;14791;52.392;13.092;2023-05-23T01:32:06;100695.67;;;24.22;27.63
27304;BME280;14791;52.392;13.092;2023-05-23T01:34:40;100701.97;;;24.22;27.57
27304;BME280;14791;52.392;13.092;2023-05-23T01:37:10;100699.23;;;24.22;27.55
27304;BME280;14791;52.392;13.092;2023-05-23T01:39:41;100710.51;;;24.23;27.83
27304;BME280;14791;52.392;13.092;2023-05-23T01:42:10;100713.27;;;24.19;27.98
27304;BME280;14791;52.392;13.092;2023-05-23T01:44:41;100700.20;;;24.10;28.01
27304;BME280;14791;52.392;13.092;2023-05-23T01:47:10;100691.05;;;24.03;28.17
27304;BME280;14791;52.392;13.092;2023-05-23T01:49:41;100693.66;;;23.96;28.29
27304;BME280;14791;52.392;13.092;2023-05-23T01:52:12;100698.13;;;23.93;28.33
27304;BME280;14791;52.392;13.092;2023-05-23T01:54:43;100704.63;;;23.92;28.39
27304;BME280;14791;52.392;13.092;2023-05-23T01:57:14;100697.45;;;23.91;28.39
27304;BME280;14791;52.392;13.092;2023-05-23T01:59:43;100692.84;;;23.92;28.49
27304;BME280;14791;52.392;13.092;2023-05-23T02:02:12;100688.75;;;23.92;28.53
27304;BME280;14791;52.392;13.092;2023-05-23T02:04:41;100684.66;;;23.92;28.59
27304;BME280;14791;52.392;13.092;2023-05-23T02:07:10;100685.53;;;23.92;28.61
27304;BME280;14791;52.392;13.092;2023-05-23T02:09:39;100687.56;;;23.94;28.61
27304;BME280;14791;52.392;13.092;2023-05-23T02:12:08;100672.19;;;23.97;28.68
27304;BME280;14791;52.392;13.092;2023-05-23T02:14:38;100677.61;;;24.02;28.79
27304;BME280;14791;52.392;13.092;2023-05-23T02:17:09;100677.23;;;24.05;28.80
27304;BME280;14791;52.392;13.092;2023-05-23T02:19:38;100682.00;;;24.07;28.67
27304;BME280;14791;52.392;13.092;2023-05-23T02:22:07;100674.48;;;24.09;28.77
27304;BME280;14791;52.392;13.092;2023-05-23T02:24:35;100668.30;;;24.11;28.80
27304;BME280;14791;52.392;13.092;2023-05-23T02:27:06;100663.86;;;24.14;28.82
27304;BME280;14791;52.392;13.092;2023-05-23T02:29:35;100665.54;;;24.15;28.81
27304;BME280;14791;52.392;13.092;2023-05-23T02:32:04;100668.94;;;24.17;28.73
27304;BME280;14791;52.392;13.092;2023-05-23T02:34:33;100666.20;;;24.17;28.75
27304;BME280;14791;52.392;13.092;2023-05-23T02:37:02;100660.05;;;24.19;28.80
27304;BME280;14791;52.392;13.092;2023-05-23T02:39:35;100660.37;;;24.20;28.83
27304;BME280;14791;52.392;13.092;2023-05-23T02:42:04;100662.41;;;24.22;28.79
27304;BME280;14791;52.392;13.092;2023-05-23T02:44:33;100663.77;;;24.22;28.83
27304;BME280;14791;52.392;13.092;2023-05-23T02:47:02;100659.67;;;24.22;28.80
27304;BME280;14791;52.392;13.092;2023-05-23T02:49:31;100665.48;;;24.23;28.83
27304;BME280;14791;52.392;13.092;2023-05-23T02:52:01;100671.78;;;24.24;28.83
27304;BME280;14791;52.392;13.092;2023-05-23T02:54:30;100676.71;;;24.24;29.00
27304;BME280;14791;52.392;13.092;2023-05-23T02:56:59;100684.90;;;24.24;29.51
27304;BME280;14791;52.392;13.092;2023-05-23T02:59:28;100685.74;;;24.25;30.01
27304;BME280;14791;52.392;13.092;2023-05-23T03:01:57;100684.73;;;24.26;30.45
27304;BME280;14791;52.392;13.092;2023-05-23T03:04:26;100676.02;;;24.26;30.54
27304;BME280;14791;52.392;13.092;2023-05-23T03:06:56;100670.56;;;24.26;30.22
27304;BME280;14791;52.392;13.092;2023-05-23T03:09:26;100668.14;;;24.27;30.04
27304;BME280;14791;52.392;13.092;2023-05-23T03:11:56;100659.95;;;24.27;29.96
27304;BME280;14791;52.392;13.092;2023-05-23T03:14:25;100643.27;;;24.26;29.92
27304;BME280;14791;52.392;13.092;2023-05-23T03:16:54;100636.97;;;24.26;29.85
27304;BME280;14791;52.392;13.092;2023-05-23T03:19:23;100636.09;;;24.25;29.83
27304;BME280;14791;52.392;13.092;2023-05-23T03:21:52;100637.67;;;24.24;29.83
27304;BME280;14791;52.392;13.092;2023-05-23T03:24:22;100628.64;;;24.23;29.77
27304;BME280;14791;52.392;13.092;2023-05-23T03:26:53;100634.41;;;24.24;29.78
27304;BME280;14791;52.392;13.092;2023-05-23T03:29:22;100623.67;;;24.23;29.82
27304;BME280;14791;52.392;13.092;2023-05-23T03:31:51;100617.38;;;24.22;29.86
27304;BME280;14791;52.392;13.092;2023-05-23T03:34:20;100615.17;;;24.22;29.92
27304;BME280;14791;52.392;13.092;2023-05-23T03:36:50;100625.56;;;24.22;29.99
27304;BME280;14791;52.392;13.092;2023-05-23T03:39:19;100632.77;;;24.19;29.96
27304;BME280;14791;52.392;13.092;2023-05-23T03:41:48;100644.70;;;24.18;30.03
27304;BME280;14791;52.392;13.092;2023-05-23T03:44:17;100649.31;;;24.17;30.02
27304;BME280;14791;52.392;13.092;2023-05-23T03:46:46;100642.70;;;24.16;30.04
27304;BME280;14791;52.392;13.092;2023-05-23T03:49:15;100650.22;;;24.14;30.06
27304;BME280;14791;52.392;13.092;2023-05-23T03:51:44;100652.59;;;24.13;30.10
27304;BME280;14791;52.392;13.092;2023-05-23T03:54:15;100646.82;;;24.12;30.13
27304;BME280;14791;52.392;13.092;2023-05-23T03:56:44;100649.55;;;24.12;30.15
27304;BME280;14791;52.392;13.092;2023-05-23T03:59:15;100641.36;;;24.12;30.15
27304;BME280;14791;52.392;13.092;2023-05-23T04:01:45;100646.13;;;24.14;30.18
27304;BME280;14791;52.392;13.092;2023-05-23T04:04:14;100656.83;;;24.15;30.24
27304;BME280;14791;52.392;13.092;2023-05-23T04:06:44;100664.84;;;24.17;30.43
27304;BME280;14791;52.392;13.092;2023-05-23T04:09:14;100659.39;;;24.17;30.13
27304;BME280;14791;52.392;13.092;2023-05-23T04:11:45;100674.39;;;24.17;30.08
27304;BME280;14791;52.392;13.092;2023-05-23T04:14:15;100669.11;;;24.15;30.24
27304;BME280;14791;52.392;13.092;2023-05-23T04:16:45;100671.17;;;24.13;30.32
27304;BME280;14791;52.392;13.092;2023-05-23T04:19:15;100666.94;;;24.11;30.34
27304;BME280;14791;52.392;13.092;2023-05-23T04:21:44;100663.05;;;24.09;30.34
27304;BME280;14791;52.392;13.092;2023-05-23T04:24:14;100663.56;;;24.09;30.38
27304;BME280;14791;52.392;13.092;2023-05-23T04:26:43;100662.38;;;24.07;30.45
27304;BME280;14791;52.392;13.092;2023-05-23T04:29:12;100667.17;;;24.05;30.62
27304;BME280;14791;52.392;13.092;2023-05-23T04:31:42;100672.16;;;24.02;30.81
27304;BME280;14791;52.392;13.092;2023-05-23T04:34:12;100669.98;;;23.97;31.00
27304;BME280;14791;52.392;13.092;2023-05-23T04:36:41;100674.63;;;23.92;31.23
27304;BME280;14791;52.392;13.092;2023-05-23T04:39:11;100672.23;;;23.89;31.52
27304;BME280;14791;52.392;13.092;2023-05-23T04:41:42;100669.89;;;23.86;31.78
27304;BME280;14791;52.392;13.092;2023-05-23T04:44:28;100670.78;;;23.83;32.09
27304;BME280;14791;52.392;13.092;2023-05-23T04:47:02;100668.92;;;23.79;32.05
27304;BME280;14791;52.392;13.092;2023-05-23T04:49:32;100670.98;;;23.77;32.38
27304;BME280;14791;52.392;13.092;2023-05-23T04:52:03;100675.44;;;23.74;32.35
27304;BME280;14791;52.392;13.092;2023-05-23T04:54:33;100666.23;;;23.71;32.36
27304;BME280;14791;52.392;13.092;2023-05-23T04:57:05;100665.56;;;23.69;32.49
27304;BME280;14791;52.392;13.092;2023-05-23T04:59:34;100661.85;;;23.66;32.51
27304;BME280;14791;52.392;13.092;2023-05-23T05:02:05;100656.57;;;23.64;32.63
27304;BME280;14791;52.392;13.092;2023-05-23T05:04:34;100655.38;;;23.63;32.64
27304;BME280;14791;52.392;13.092;2023-05-23T05:07:03;100653.34;;;23.61;32.65
27304;BME280;14791;52.392;13.092;2023-05-23T05:09:33;100655.05;;;23.62;32.66
27304;BME280;14791;52.392;13.092;2023-05-23T05:12:03;100663.23;;;23.62;32.68
27304;BME280;14791;52.392;13.092;2023-05-23T05:14:33;100659.81;;;23.64;32.72
27304;BME280;14791;52.392;13.092;2023-05-23T05:17:02;100657.41;;;23.65;32.79
27304;BME280;14791;52.392;13.092;2023-05-23T05:19:33;100654.83;;;23.67;32.86
27304;BME280;14791;52.392;13.092;2023-05-23T05:22:02;100658.40;;;23.68;32.88
27304;BME280;14791;52.392;13.092;2023-05-23T05:24:32;100663.85;;;23.68;32.94
27304;BME280;14791;52.392;13.092;2023-05-23T05:27:01;100662.84;;;23.69;32.97
27304;BME280;14791;52.392;13.092;2023-05-23T05:29:31;100661.48;;;23.69;32.91
27304;BME280;14791;52.392;13.092;2023-05-23T05:32:01;100665.89;;;23.70;32.98
27304;BME280;14791;52.392;13.092;2023-05-23T05:34:30;100662.32;;;23.69;33.05
27304;BME280;14791;52.392;13.092;2023-05-23T05:37:00;100668.09;;;23.70;33.03
27304;BME280;14791;52.392;13.092;2023-05-23T05:39:29;100671.00;;;23.73;32.99
27304;BME280;14791;52.392;13.092;2023-05-23T05:41:58;100656.35;;;23.74;33.02
27304;BME280;14791;52.392;13.092;2023-05-23T05:44:28;100662.12;;;23.75;32.91
27304;BME280;14791;52.392;13.092;2023-05-23T05:46:58;100658.70;;;23.77;32.81
27304;BME280;14791;52.392;13.092;2023-05-23T05:49:27;100658.39;;;23.76;32.77
27304;BME280;14791;52.392;13.092;2023-05-23T05:51:56;100666.89;;;23.77;32.64
27304;BME280;14791;52.392;13.092;2023-05-23T05:54:25;100665.20;;;23.76;32.67
27304;BME280;14791;52.392;13.092;2023-05-23T05:56:54;100666.73;;;23.74;32.72
27304;BME280;14791;52.392;13.092;2023-05-23T05:59:24;100667.27;;;23.74;32.79
27304;BME280;14791;52.392;13.092;2023-05-23T06:01:55;100653.10;;;23.74;32.88
27304;BME280;14791;52.392;13.092;2023-05-23T06:04:24;100667.23;;;23.78;32.91
27304;BME280;14791;52.392;13.092;2023-05-23T06:06:53;100669.59;;;23.81;32.87
27304;BME280;14791;52.392;13.092;2023-05-23T06:09:22;100670.95;;;23.81;32.95
27304;BME280;14791;52.392;13.092;2023-05-23T06:11:51;100667.18;;;23.82;32.95
27304;BME280;14791;52.392;13.092;2023-05-23T06:14:21;100668.05;;;23.83;32.93
27304;BME280;14791;52.392;13.092;2023-05-23T06:16:51;100668.90;;;23.83;32.92
27304;BME280;14791;52.392;13.092;2023-05-23T06:19:19;100664.80;;;23.83;32.98
27304;BME280;14791;52.392;13.092;2023-05-23T06:21:49;100670.93;;;23.85;33.04
27304;BME280;14791;52.392;13.092;2023-05-23T06:24:18;100675.69;;;23.87;33.04
27304;BME280;14791;52.392;13.092;2023-05-23T06:26:47;100676.68;;;23.90;33.02
27304;BME280;14791;52.392;13.092;2023-05-23T06:29:16;100678.36;;;23.91;32.94
27304;BME280;14791;52.392;13.092;2023-05-23T06:31:45;100679.38;;;23.94;32.97
27304;BME280;14791;52.392;13.092;2023-05-23T06:34:15;100680.02;;;23.96;33.01
27304;BME280;14791;52.392;13.092;2023-05-23T06:36:46;100679.67;;;23.99;33.03
27304;BME280;14791;52.392;13.092;2023-05-23T06:39:16;100680.66;;;24.03;33.12
27304;BME280;14791;52.392;13.092;2023-05-23T06:41:46;100686.27;;;24.05;33.13
27304;BME280;14791;52.392;13.092;2023-05-23T06:44:15;100690.67;;;24.06;33.11
27304;BME280;14791;52.392;13.092;2023-05-23T06:46:47;100682.48;;;24.06;33.11
27304;BME280;14791;52.392;13.092;2023-05-23T06:49:17;100686.77;;;24.09;33.09
27304;BME280;14791;52.392;13.092;2023-05-23T06:51:46;100690.50;;;24.08;33.11
27304;BME280;14791;52.392;13.092;2023-05-23T06:54:15;100680.58;;;24.11;33.09
27304;BME280;14791;52.392;13.092;2023-05-23T06:56:44;100682.47;;;24.10;33.04
27304;BME280;14791;52.392;13.092;2023-05-23T06:59:13;100680.92;;;24.12;33.05
27304;BME280;14791;52.392;13.092;2023-05-23T07:01:42;100680.58;;;24.11;33.06
27304;BME280;14791;52.392;13.092;2023-05-23T07:04:12;100687.05;;;24.14;33.12
27304;BME280;14791;52.392;13.092;2023-05-23T07:06:40;100689.78;;;24.14;33.15
27304;BME280;14791;52.392;13.092;2023-05-23T07:09:10;100685.34;;;24.13;33.19
27304;BME280;14791;52.392;13.092;2023-05-23T07:11:40;100691.46;;;24.15;33.27
27304;BME280;14791;52.392;13.092;2023-05-23T07:14:09;100689.41;;;24.17;33.29
27304;BME280;14791;52.392;13.092;2023-05-23T07:16:40;100689.72;;;24.18;33.23
27304;BME280;14791;52.392;13.092;2023-05-23T07:19:09;100683.77;;;24.18;33.28
27304;BME280;14791;52.392;13.092;2023-05-23T07:21:39;100683.77;;;24.18;33.27
27304;BME280;14791;52.392;13.092;2023-05-23T07:24:09;100685.98;;;24.19;33.31
27304;BME280;14791;52.392;13.092;2023-05-23T07:26:38;100685.28;;;24.21;33.35
27304;BME280;14791;52.392;13.092;2023-05-23T07:29:07;100692.56;;;24.25;33.41
27304;BME280;14791;52.392;13.092;2023-05-23T07:31:37;100686.41;;;24.27;33.41
27304;BME280;14791;52.392;13.092;2023-05-23T07:34:07;100686.69;;;24.32;33.44
27304;BME280;14791;52.392;13.092;2023-05-23T07:36:37;100683.59;;;24.35;33.57
27304;BME280;14791;52.392;13.092;2023-05-23T07:39:09;100687.13;;;24.39;33.73
27304;BME280;14791;52.392;13.092;2023-05-23T07:41:38;100694.93;;;24.47;33.92
27304;BME280;14791;52.392;13.092;2023-05-23T07:44:07;100694.86;;;24.55;34.02
27304;BME280;14791;52.392;13.092;2023-05-23T07:46:36;100688.45;;;24.62;34.08
27304;BME280;14791;52.392;13.092;2023-05-23T07:49:05;100690.77;;;24.70;34.14
27304;BME280;14791;52.392;13.092;2023-05-23T07:51:35;100684.70;;;24.78;34.16
27304;BME280;14791;52.392;13.092;2023-05-23T07:54:05;100688.37;;;24.86;34.17
27304;BME280;14791;52.392;13.092;2023-05-23T07:56:34;100688.65;;;24.91;34.20
27304;BME280;14791;52.392;13.092;2023-05-23T07:59:06;100691.30;;;24.95;34.30
27304;BME280;14791;52.392;13.092;2023-05-23T08:01:36;100695.58;;;24.97;34.36
27304;BME280;14791;52.392;13.092;2023-05-23T08:04:06;100692.91;;;25.04;34.50
27304;BME280;14791;52.392;13.092;2023-05-23T08:06:40;100703.40;;;25.11;34.58
27304;BME280;14791;52.392;13.092;2023-05-23T08:09:10;100704.18;;;25.20;34.62
27304;BME280;14791;52.392;13.092;2023-05-23T08:11:41;100702.55;;;25.25;34.77
27304;BME280;14791;52.392;13.092;2023-05-23T08:14:11;100712.03;;;25.34;34.78
27304;BME280;14791;52.392;13.092;2023-05-23T08:16:41;100710.22;;;25.41;34.94
27304;BME280;14791;52.392;13.092;2023-05-23T08:19:15;100718.64;;;25.50;35.02
27304;BME280;14791;52.392;13.092;2023-05-23T08:21:45;100706.73;;;25.58;35.04
27304;BME280;14791;52.392;13.092;2023-05-23T08:24:14;100715.98;;;25.67;35.10
27304;BME280;14791;52.392;13.092;2023-05-23T08:26:44;100721.98;;;25.78;35.02
27304;BME280;14791;52.392;13.092;2023-05-23T08:29:14;100721.50;;;25.89;35.22
27304;BME280;14791;52.392;13.092;2023-05-23T08:31:43;100722.13;;;26.02;35.28
27304;BME280;14791;52.392;13.092;2023-05-23T08:34:12;100724.87;;;26.13;35.27
27304;BME280;14791;52.392;13.092;2023-05-23T08:36:42;100730.79;;;26.16;35.20
27304;BME280;14791;52.392;13.092;2023-05-23T08:39:13;100722.45;;;26.14;35.27
27304;BME280;14791;52.392;13.092;2023-05-23T08:41:43;100726.56;;;26.14;35.34
27304;BME280;14791;52.392;13.092;2023-05-23T08:44:13;100733.09;;;26.13;35.32
27304;BME280;14791;52.392;13.092;2023-05-23T08:46:45;100734.77;;;26.14;35.51
27304;BME280;14791;52.392;13.092;2023-05-23T08:49:17;100739.41;;;26.13;35.39
27304;BME280;14791;52.392;13.092;2023-05-23T08:51:49;100742.73;;;26.08;35.59
27304;BME280;14791;52.392;13.092;2023-05-23T08:54:21;100744.50;;;26.05;35.47
27304;BME280;14791;52.392;13.092;2023-05-23T08:56:50;100746.98;;;26.00;35.79
27304;BME280;14791;52.392;13.092;2023-05-23T08:59:20;100746.81;;;25.98;35.99
27304;BME280;14791;52.392;13.092;2023-05-23T09:01:51;100746.64;;;25.99;36.09
27304;BME280;14791;52.392;13.092;2023-05-23T09:04:21;100748.79;;;26.04;36.33
27304;BME280;14791;52.392;13.092;2023-05-23T09:06:56;100744.41;;;26.09;36.43
27304;BME280;14791;52.392;13.092;2023-05-23T09:09:26;100751.84;;;26.16;36.48
27304;BME280;14791;52.392;13.092;2023-05-23T09:11:57;100754.31;;;26.21;36.48
27304;BME280;14791;52.392;13.092;2023-05-23T09:14:28;100755.93;;;26.26;36.54
27304;BME280;14791;52.392;13.092;2023-05-23T09:17:01;100755.03;;;26.30;36.61
27304;BME280;14791;52.392;13.092;2023-05-23T09:19:30;100753.78;;;26.33;36.48
27304;BME280;14791;52.392;13.092;2023-05-23T09:22:04;100760.04;;;26.37;36.59
27304;BME280;14791;52.392;13.092;2023-05-23T09:24:35;100751.11;;;26.39;36.69
27304;BME280;14791;52.392;13.092;2023-05-23T09:27:07;100753.75;;;26.43;36.80
27304;BME280;14791;52.392;13.092;2023-05-23T09:29:37;100753.81;;;26.50;36.85
27304;BME280;14791;52.392;13.092;2023-05-23T09:32:12;100763.08;;;26.60;36.87
27304;BME280;14791;52.392;13.092;2023-05-23T09:35:05;100757.84;;;26.65;36.81
27304;BME280;14791;52.392;13.092;2023-05-23T09:37:12;100763.06;;;26.70;36.79
27304;BME280;14791;52.392;13.092;2023-05-23T09:39:45;100758.14;;;26.77;36.79
27304;BME280;14791;52.392;13.092;2023-05-23T09:42:22;100763.24;;;26.80;36.82
27304;BME280;14791;52.392;13.092;2023-05-23T09:44:51;100773.98;;;26.81;36.68
27304;BME280;14791;52.392;13.092;2023-05-23T09:47:21;100770.04;;;26.73;36.74
27304;BME280;14791;52.392;13.092;2023-05-23T09:49:51;100775.41;;;26.60;36.83
27304;BME280;14791;52.392;13.092;2023-05-23T09:52:20;100780.83;;;26.42;37.09
27304;BME280;14791;52.392;13.092;2023-05-23T09:54:49;100777.14;;;26.18;37.29
27304;BME280;14791;52.392;13.092;2023-05-23T09:57:18;100782.66;;;25.92;37.54
27304;BME280;14791;52.392;13.092;2023-05-23T09:59:53;100785.38;;;25.66;37.91
27304;BME280;14791;52.392;13.092;2023-05-23T10:05:08;100780.92;;;25.14;38.52
27304;BME280;14791;52.392;13.092;2023-05-23T10:07:39;100790.08;;;24.88;38.77
27304;BME280;14791;52.392;13.092;2023-05-23T10:10:11;100798.11;;;24.70;39.11
27304;BME280;14791;52.392;13.092;2023-05-23T10:12:51;100791.12;;;24.53;39.32
27304;BME280;14791;52.392;13.092;2023-05-23T10:15:22;100797.67;;;24.39;39.50
27304;BME280;14791;52.392;13.092;2023-05-23T10:18:17;100804.66;;;24.23;39.77
27304;BME280;14791;52.392;13.092;2023-05-23T10:20:48;100799.11;;;24.08;40.03
27304;BME280;14791;52.392;13.092;2023-05-23T10:23:18;100797.06;;;23.87;40.28
27304;BME280;14791;52.392;13.092;2023-05-23T10:25:49;100801.88;;;23.77;40.54
27304;BME280;14791;52.392;13.092;2023-05-23T10:28:19;100804.96;;;23.74;40.73
27304;BME280;14791;52.392;13.092;2023-05-23T10:30:48;100795.75;;;23.71;40.85
27304;BME280;14791;52.392;13.092;2023-05-23T10:33:18;100799.02;;;23.66;40.94
27304;BME280;14791;52.392;13.092;2023-05-23T10:38:50;100802.27;;;23.62;41.03
27304;BME280;14791;52.392;13.092;2023-05-23T10:41:26;100800.91;;;23.62;41.10
27304;BME280;14791;52.392;13.092;2023-05-23T10:44:02;100797.51;;;23.60;41.17
27304;BME280;14791;52.392;13.092;2023-05-23T10:49:16;100799.84;;;23.71;41.29
27304;BME280;14791;52.392;13.092;2023-05-23T10:51:51;100810.55;;;23.72;41.18
27304;BME280;14791;52.392;13.092;2023-05-23T10:54:20;100804.96;;;23.74;41.10
27304;BME280;14791;52.392;13.092;2023-05-23T10:57:01;100814.16;;;23.73;41.12
27304;BME280;14791;52.392;13.092;2023-05-23T10:59:21;100808.86;;;23.71;41.23
27304;BME280;14791;52.392;13.092;2023-05-23T11:01:50;100807.34;;;23.69;41.34
27304;BME280;14791;52.392;13.092;2023-05-23T11:04:29;100816.05;;;23.68;41.45
27304;BME280;14791;52.392;13.092;2023-05-23T11:06:58;100812.80;;;23.69;41.52
27304;BME280;14791;52.392;13.092;2023-05-23T11:09:27;100807.00;;;23.68;41.67
27304;BME280;14791;52.392;13.092;2023-05-23T11:12:04;100814.16;;;23.73;41.68
27304;BME280;14791;52.392;13.092;2023-05-23T11:20:04;100802.47;;;23.91;41.53
27304;BME280;14791;52.392;13.092;2023-05-23T11:22:35;100804.13;;;23.96;41.43
27304;BME280;14791;52.392;13.092;2023-05-23T11:25:08;100810.27;;;23.98;41.35
27304;BME280;14791;52.392;13.092;2023-05-23T11:27:39;100815.33;;;24.06;41.32
27304;BME280;14791;52.392;13.092;2023-05-23T11:30:14;100812.06;;;24.10;41.26
27304;BME280;14791;52.392;13.092;2023-05-23T11:32:51;100813.55;;;24.17;41.16
27304;BME280;14791;52.392;13.092;2023-05-23T11:35:21;100811.65;;;24.22;41.08
27304;BME280;14791;52.392;13.092;2023-05-23T11:37:50;100808.69;;;24.27;41.05
27304;BME280;14791;52.392;13.092;2023-05-23T11:40:39;100811.23;;;24.33;40.95
27304;BME280;14791;52.392;13.092;2023-05-23T11:43:10;100816.63;;;24.37;40.83
27304;BME280;14791;52.392;13.092;2023-05-23T11:45:39;100816.84;;;24.35;40.74
27304;BME280;14791;52.392;13.092;2023-05-23T11:48:17;100820.23;;;24.37;40.70
27304;BME280;14791;52.392;13.092;2023-05-23T11:50:47;100819.04;;;24.36;40.67
27304;BME280;14791;52.392;13.092;2023-05-23T11:53:18;100821.62;;;24.33;40.63
27304;BME280;14791;52.392;13.092;2023-05-23T11:58:21;100824.75;;;24.26;40.66
27304;BME280;14791;52.392;13.092;2023-05-23T12:00:50;100827.17;;;24.21;40.69
27304;BME280;14791;52.392;13.092;2023-05-23T12:03:19;100826.51;;;24.19;40.82
27304;BME280;14791;52.392;13.092;2023-05-23T12:05:48;100828.88;;;24.18;40.84
27304;BME280;14791;52.392;13.092;2023-05-23T12:08:16;100824.99;;;24.16;40.82
27304;BME280;14791;52.392;13.092;2023-05-23T12:11:02;100826.16;;;24.18;40.85
27304;BME280;14791;52.392;13.092;2023-05-23T12:13:30;100826.51;;;24.19;40.82
27304;BME280;14791;52.392;13.092;2023-05-23T12:16:00;100831.96;;;24.19;40.83
27304;BME280;14791;52.392;13.092;2023-05-23T12:18:32;100829.91;;;24.21;40.83
27304;BME280;14791;52.392;13.092;2023-05-23T12:21:05;100832.95;;;24.22;40.86
27304;BME280;14791;52.392;13.092;2023-05-23T12:23:36;100831.94;;;24.23;40.88
27304;BME280;14791;52.392;13.092;2023-05-23T12:26:06;100830.58;;;24.23;40.95
27304;BME280;14791;52.392;13.092;2023-05-23T12:28:40;100841.96;;;24.27;41.01
27304;BME280;14791;52.392;13.092;2023-05-23T12:31:14;100843.83;;;24.30;41.05
27304;BME280;14791;52.392;13.092;2023-05-23T12:33:44;100836.95;;;24.34;41.11
27304;BME280;14791;52.392;13.092;2023-05-23T12:36:15;100836.23;;;24.40;41.11
27304;BME280;14791;52.392;13.092;2023-05-23T12:38:45;100843.70;;;24.47;41.06
27304;BME280;14791;52.392;13.092;2023-05-23T12:41:18;100843.37;;;24.50;40.99
27304;BME280;14791;52.392;13.092;2023-05-23T12:43:53;100835.50;;;24.51;41.06
27304;BME280;14791;52.392;13.092;2023-05-23T12:46:24;100846.41;;;24.51;41.05
27304;BME280;14791;52.392;13.092;2023-05-23T12:48:53;100845.59;;;24.46;41.13
27304;BME280;14791;52.392;13.092;2023-05-23T12:51:22;100841.72;;;24.36;41.24
27304;BME280;14791;52.392;13.092;2023-05-23T12:53:52;100844.84;;;24.29;41.41
27304;BME280;14791;52.392;13.092;2023-05-23T12:56:22;100846.59;;;24.22;41.52
27304;BME280;14791;52.392;13.092;2023-05-23T12:58:51;100845.30;;;24.14;41.61
27304;BME280;14791;52.392;13.092;2023-05-23T13:01:20;100844.65;;;24.08;41.74
27304;BME280;14791;52.392;13.092;2023-05-23T13:03:49;100848.95;;;24.02;41.79
27304;BME280;14791;52.392;13.092;2023-05-23T13:06:18;100847.93;;;23.99;41.74
27304;BME280;14791;52.392;13.092;2023-05-23T13:08:47;100848.45;;;23.98;41.78
27304;BME280;14791;52.392;13.092;2023-05-23T13:11:17;100850.86;;;23.97;41.88
27304;BME280;14791;52.392;13.092;2023-05-23T13:13:46;100849.48;;;24.02;42.00
27304;BME280;14791;52.392;13.092;2023-05-23T13:16:16;100848.59;;;24.05;42.04
27304;BME280;14791;52.392;13.092;2023-05-23T13:18:45;100851.83;;;24.09;42.09